Terminal Aerodrome Forecast
Issued by NWS Brownsville, TX

Home | Current Version | Previous Version | Text Only | Print | Product List | Glossary On
Versions: 1 2 3 4 5 6 7 8 9 10 11 12 13 14 15 16 17 18 19
000
FTUS44 KBRO 220800 AAA
TAFMFE
TAF AMD
KMFE 220839Z 2209/2306 12011KT P6SM VCSH OVC060
      TEMPO 2209/2213 -RA BKN025
     FM221700 14023G31KT P6SM BKN035 OVC050
     FM230000 16016KT P6SM TSRA BKN035CB=

USA.gov is the U.S. government's official web portal to all federal, state and local government web resources and services.